Time;durP1;ratioP1;P1;durP2;ratioP2;P2;SDS_P1;SDS_P2;PMS_P1;PMS_P2;Temp;Humidity;BMP_temperature;BMP_pressure;BME280_temperature;BME280_humidity;BME280_pressure;Samples;Min_cycle;Max_cycle;Signal;HPM_P1;HPM_P2
2022/01/28 00:05:23;;;;;;;364.58;214.48;;;38.90;2201.60;;;;;;6214241;23;20008;-85
2022/01/28 00:07:50;;;;;;;335.48;194.93;;;38.90;2201.60;;;;;;6213959;23;20058;-84
2022/01/28 00:10:16;;;;;;;337.27;192.65;;;38.90;2201.60;;;;;;6187688;23;20340;-87
2022/01/28 00:15:43;;;;;;;359.63;212.68;;;;;;;;;;6215502;23;20016;-87
2022/01/28 00:39:47;;;;;;;317.27;179.65;;;;;;;;;;6213482;23;19900;-76
2022/01/28 00:42:13;;;;;;;349.80;199.30;;;;;;;;;;6186835;23;20001;-77
2022/01/28 00:44:39;;;;;;;332.40;189.02;;;;;;;;;;6186213;23;20000;-78
2022/01/28 00:47:05;;;;;;;333.35;191.80;;;;;;;;;;6213088;23;19993;-77
2022/01/28 00:49:32;;;;;;;327.65;190.65;;;;;;;;;;6212638;23;20391;-76
2022/01/28 00:51:58;;;;;;;334.15;193.00;;;38.90;2201.60;;;;;;6186099;23;20008;-77
2022/01/28 00:54:23;;;;;;;292.50;164.95;;;39.00;2201.60;;;;;;6213064;23;20024;-77
2022/01/28 00:56:49;;;;;;;292.30;167.73;;;39.10;2201.60;;;;;;6212799;23;20060;-78
2022/01/28 00:59:16;;;;;;;288.77;173.43;;;39.10;2201.60;;;;;;6186446;23;20004;-77
2022/01/28 01:01:42;;;;;;;324.20;190.82;;;;;;;;;;6213056;23;20436;-78
2022/01/28 01:04:08;;;;;;;359.15;204.18;;;;;;;;;;6185626;23;20462;-77
2022/01/28 01:06:34;;;;;;;366.20;216.68;;;;;;;;;;6212365;23;20385;-77
2022/01/28 01:09:00;;;;;;;411.48;240.00;;;;;;;;;;6212201;23;20012;-77
2022/01/28 01:11:27;;;;;;;415.55;233.90;;;;;;;;;;6212708;23;20068;-77
2022/01/28 01:13:54;;;;;;;432.35;239.18;;;;;;;;;;6185846;23;20081;-77
2022/01/28 01:16:28;;;;;;;437.00;247.63;;;;;;;;;;6212648;23;20000;-77
2022/01/28 01:19:21;;;;;;;413.02;236.00;;;;;;;;;;6185875;23;20063;-77
2022/01/28 01:21:42;;;;;;;381.73;212.98;;;;;;;;;;6212224;23;20009;-78
2022/01/28 01:24:11;;;;;;;374.92;200.27;;;39.30;2201.60;;;;;;6212463;23;20087;-76
2022/01/28 01:26:39;;;;;;;390.55;212.32;;;64.00;2201.60;;;;;;6212937;23;20032;-77
2022/01/28 01:29:09;;;;;;;392.30;220.15;;;64.10;2201.60;;;;;;6186276;23;20104;-77
2022/01/28 01:31:39;;;;;;;404.50;229.73;;;64.10;2201.60;;;;;;6213077;23;19992;-76
2022/01/28 01:34:12;;;;;;;411.67;239.10;;;64.20;2201.60;;;;;;6212963;23;20008;-77
2022/01/28 01:36:38;;;;;;;395.90;231.35;;;64.20;2201.60;;;;;;6212538;23;20003;-78
2022/01/28 01:39:04;;;;;;;393.60;230.93;;;64.20;2201.60;;;;;;6212611;23;20020;-77
2022/01/28 01:41:38;;;;;;;414.88;239.43;;;64.10;2201.60;;;;;;6185516;23;20051;-78
2022/01/28 01:44:17;;;;;;;440.27;260.98;;;64.20;2201.60;;;;;;6212919;23;19993;-78
2022/01/28 01:47:13;;;;;;;429.85;253.88;;;64.20;2201.60;;;;;;6212947;23;20032;-77
2022/01/28 01:52:12;;;;;;;422.10;242.88;;;64.20;2201.60;;;;;;6212988;23;20008;-78
2022/01/28 01:54:42;;;;;;;434.02;249.18;;;64.10;2201.60;;;;;;6213098;23;19997;-78
2022/01/28 01:57:11;;;;;;;353.85;205.93;;;64.20;2201.60;;;;;;6212718;23;19993;-77
2022/01/28 01:59:39;;;;;;;327.30;192.90;;;64.20;2201.60;;;;;;6213338;23;20001;-78
2022/01/28 02:02:06;;;;;;;341.30;190.63;;;64.20;2201.60;;;;;;6213039;23;20007;-78
2022/01/28 02:04:32;;;;;;;333.63;181.20;;;64.20;2201.60;;;;;;6213273;23;20001;-77
2022/01/28 02:06:58;;;;;;;326.90;192.05;;;64.10;2201.60;;;;;;6212882;23;20428;-78
2022/01/28 02:09:23;;;;;;;335.73;189.77;;;64.10;2201.60;;;;;;6212955;23;20009;-77
2022/01/28 02:11:49;;;;;;;343.52;198.82;;;64.10;2201.60;;;;;;6212946;23;20000;-77
2022/01/28 02:14:15;;;;;;;362.88;202.75;;;64.20;2201.60;;;;;;6213119;23;20767;-78
2022/01/28 02:16:40;;;;;;;350.02;201.15;;;64.20;2201.60;;;;;;6215353;23;20005;-78
2022/01/28 02:19:06;;;;;;;344.00;197.82;;;64.20;2201.60;;;;;;6214967;23;19997;-77
2022/01/28 02:21:49;;;;;;;359.00;204.15;;;64.20;2201.60;;;;;;6215138;23;20364;-76
2022/01/28 02:24:18;;;;;;;346.75;203.27;;;64.20;2201.60;;;;;;6214615;23;20436;-77
2022/01/28 02:26:44;;;;;;;374.02;224.65;;;64.20;2201.60;;;;;;6214984;23;20067;-77
2022/01/28 02:29:13;;;;;;;378.00;224.80;;;64.20;2201.60;;;;;;6214056;23;20032;-77
2022/01/28 02:31:40;;;;;;;353.98;191.88;;;64.30;2201.60;;;;;;6188304;23;20036;-77
2022/01/28 02:34:10;;;;;;;366.20;211.23;;;64.30;2201.60;;;;;;6188110;23;20428;-77
2022/01/28 02:36:36;;;;;;;368.50;209.45;;;64.30;2201.60;;;;;;6187929;23;20007;-77
2022/01/28 02:39:03;;;;;;;369.60;212.05;;;64.30;2201.60;;;;;;6214560;23;19996;-77
2022/01/28 02:41:34;;;;;;;398.85;231.23;;;64.30;2201.60;;;;;;6214536;23;20080;-77
2022/01/28 02:46:37;;;;;;;397.70;228.75;;;64.40;2201.60;;;;;;6214830;23;20320;-78
2022/01/28 02:49:09;;;;;;;365.83;212.38;;;64.50;2201.60;;;;;;6186707;23;20328;-78
2022/01/28 02:51:35;;;;;;;386.15;215.80;;;64.50;2201.60;;;;;;6214546;23;19996;-77
2022/01/28 02:54:12;;;;;;;410.48;242.70;;;64.80;2201.60;;;;;;6214858;23;20075;-77
2022/01/28 02:56:39;;;;;;;414.40;238.38;;;64.80;2201.60;;;;;;6214917;23;20000;-76
2022/01/28 02:59:06;;;;;;;172.43;98.85;;;64.80;2201.60;;;;;;6188406;23;20082;-78
2022/01/28 03:01:31;;;;;;;226.40;118.93;;;64.70;2201.60;;;;;;6187292;23;20551;-78
2022/01/28 03:04:00;;;;;;;98.25;57.38;;;64.60;2201.60;;;;;;6214563;23;19996;-78
2022/01/28 03:06:26;;;;;;;111.10;61.10;;;64.60;2201.60;;;;;;6214981;23;20008;-77
2022/01/28 03:08:57;;;;;;;91.65;53.22;;;64.50;2201.60;;;;;;6214493;23;20012;-77
2022/01/28 03:16:23;;;;;;;95.45;53.25;;;64.50;2201.60;;;;;;6215064;23;19996;-78
2022/01/28 03:23:57;;;;;;;116.10;60.55;;;64.60;2201.60;;;;;;6214858;23;20312;-78
2022/01/28 03:26:25;;;;;;;147.65;77.57;;;64.60;2201.60;;;;;;6214373;23;20447;-78
2022/01/28 03:28:51;;;;;;;147.90;82.95;;;64.70;2201.60;;;;;;6214738;23;20016;-78
2022/01/28 03:31:17;;;;;;;138.95;75.93;;;64.60;2201.60;;;;;;6214519;23;20427;-77
2022/01/28 03:33:43;;;;;;;190.48;107.65;;;64.40;2201.60;;;;;;6187745;23;20005;-77
2022/01/28 03:36:09;;;;;;;138.45;76.43;;;64.50;2201.60;;;;;;6214715;23;20395;-77
2022/01/28 03:38:35;;;;;;;139.82;78.53;;;64.50;2201.60;;;;;;6214617;23;20031;-77
2022/01/28 03:41:01;;;;;;;115.75;64.45;;;64.50;2201.60;;;;;;6214503;23;20001;-77
2022/01/28 03:43:27;;;;;;;126.38;69.38;;;64.40;2201.60;;;;;;6214695;23;20008;-76
2022/01/28 03:45:53;;;;;;;109.50;60.08;;;64.50;2201.60;;;;;;6214144;23;20451;-78
2022/01/28 03:48:18;;;;;;;137.05;75.32;;;64.40;2201.60;;;;;;6214349;23;20044;-77
2022/01/28 03:50:44;;;;;;;125.82;70.97;;;64.50;2201.60;;;;;;6214331;23;20348;-78
2022/01/28 03:53:10;;;;;;;99.82;53.92;;;64.50;2201.60;;;;;;6214547;23;20083;-77
2022/01/28 03:55:36;;;;;;;109.25;55.78;;;64.60;2201.60;;;;;;6214150;23;19997;-77
2022/01/28 03:58:03;;;;;;;104.47;58.45;;;64.70;2201.60;;;;;;6214154;23;20004;-75
2022/01/28 04:00:31;;;;;;;32.95;17.85;;;64.70;2201.60;;;;;;6214568;23;20021;-76
2022/01/28 04:03:09;;;;;;;74.90;39.05;;;64.90;2201.60;;;;;;6187982;23;20052;-76
2022/01/28 04:13:32;;;;;;;;;;;64.90;2201.60;;;;;;6214520;23;20375;-77
2022/01/28 04:18:42;;;;;;;98.38;55.72;;;89.60;2201.60;;;;;;6214152;23;20450;-77
2022/01/28 04:21:08;;;;;;;103.05;57.83;;;64.90;2201.60;;;;;;6213856;23;20071;-77
2022/01/28 04:23:34;;;;;;;106.20;60.53;;;64.90;2201.60;;;;;;6213957;23;20451;-78
2022/01/28 04:25:59;;;;;;;109.22;60.50;;;64.90;2201.60;;;;;;6213543;23;20009;-78
2022/01/28 04:28:25;;;;;;;99.32;55.75;;;64.90;2201.60;;;;;;6214253;23;20016;-78
2022/01/28 04:30:51;;;;;;;93.65;58.00;;;64.80;2201.60;;;;;;6187746;23;20005;-78
2022/01/28 04:33:16;;;;;;;115.72;61.65;;;64.80;2201.60;;;;;;6213918;23;20310;-78
2022/01/28 04:35:45;;;;;;;113.13;59.67;;;64.70;2201.60;;;;;;6213790;23;19997;-77
2022/01/28 04:38:32;;;;;;;112.65;68.38;;;64.70;2201.60;;;;;;6214164;23;20421;-77
2022/01/28 04:44:04;;;;;;;143.90;80.85;;;64.70;2201.60;;;;;;6167342;23;20008;-76
2022/01/28 04:46:47;;;;;;;147.90;85.90;;;64.70;2201.60;;;;;;6213800;23;20440;-77
2022/01/28 04:49:20;;;;;;;159.23;89.20;;;64.70;2201.60;;;;;;6187444;23;20013;-77
2022/01/28 04:51:58;;;;;;;160.07;83.50;;;64.70;2201.60;;;;;;6214003;23;19996;-76
2022/01/28 04:57:01;;;;;;;121.65;67.57;;;64.80;2201.60;;;;;;6213857;23;20047;-78
2022/01/28 05:05:15;;;;;;;134.07;76.07;;;89.60;2201.60;;;;;;6193591;23;20080;-76
2022/01/28 05:26:54;;;;;;;146.85;86.53;;;64.90;2201.60;;;;;;6213359;23;20027;-76
2022/01/28 05:29:20;;;;;;;121.43;70.13;;;89.60;2201.60;;;;;;6213572;23;20008;-77
2022/01/28 05:31:47;;;;;;;148.00;79.60;;;89.90;2176.00;;;;;;6212756;23;20454;-76
2022/01/28 05:34:13;;;;;;;154.40;86.70;;;89.90;2176.00;;;;;;6186938;23;20005;-77
2022/01/28 05:36:39;;;;;;;168.57;98.00;;;89.90;2176.00;;;;;;6213749;23;20385;-76
2022/01/28 05:39:04;;;;;;;146.30;86.03;;;89.80;2176.00;;;;;;6214149;23;20000;-76
2022/01/28 05:41:31;;;;;;;148.93;86.05;;;89.70;2176.00;;;;;;6213392;23;20000;-76
2022/01/28 05:43:56;;;;;;;166.68;95.50;;;89.60;2201.60;;;;;;6213945;23;19996;-76
2022/01/28 05:46:22;;;;;;;171.32;100.80;;;64.90;2201.60;;;;;;6212821;23;20051;-76
2022/01/28 05:48:48;;;;;;;186.23;101.78;;;64.80;2201.60;;;;;;6213172;23;20084;-76
2022/01/28 05:51:14;;;;;;;177.20;105.18;;;64.70;2201.60;;;;;;6214797;23;20075;-77
2022/01/28 05:53:40;;;;;;;185.73;111.65;;;64.70;2201.60;;;;;;6188384;23;20012;-78
2022/01/28 05:56:05;;;;;;;199.35;117.82;;;64.60;2201.60;;;;;;6188645;23;20325;-77
2022/01/28 05:58:31;;;;;;;196.63;112.25;;;64.50;2201.60;;;;;;6215781;23;20007;-79
2022/01/28 06:00:57;;;;;;;163.10;97.45;;;64.50;2201.60;;;;;;6188386;23;19996;-77
2022/01/28 06:03:22;;;;;;;168.40;90.90;;;64.60;2201.60;;;;;;6214861;23;19996;-77
2022/01/28 06:05:48;;;;;;;246.95;123.93;;;64.80;2201.60;;;;;;6215221;23;20001;-77
2022/01/28 06:08:14;;;;;;;263.83;135.50;;;64.90;2201.60;;;;;;6215164;23;20046;-77
2022/01/28 06:10:40;;;;;;;209.20;110.05;;;89.70;2176.00;;;;;;6188474;23;20315;-77
2022/01/28 06:13:07;;;;;;;273.27;140.88;;;89.70;2176.00;;;;;;6188255;23;20004;-77
2022/01/28 06:15:33;;;;;;;195.00;100.15;;;89.60;2201.60;;;;;;6214176;23;20424;-79
2022/01/28 06:17:59;;;;;;;88.07;45.72;;;64.90;2201.60;;;;;;6214394;23;20007;-76
2022/01/28 06:20:24;;;;;;;175.30;104.28;;;64.90;2201.60;;;;;;6188153;23;20001;-77
2022/01/28 06:22:50;;;;;;;170.38;95.75;;;64.70;2201.60;;;;;;6213761;23;20004;-76
2022/01/28 06:25:16;;;;;;;179.80;98.22;;;64.60;2201.60;;;;;;6214065;23;20020;-77
2022/01/28 06:27:43;;;;;;;188.85;105.47;;;64.50;2201.60;;;;;;6214695;23;20004;-77
2022/01/28 06:30:10;;;;;;;180.25;100.03;;;64.30;2201.60;;;;;;6214454;23;20099;-77
2022/01/28 06:32:36;;;;;;;185.60;103.15;;;64.30;2201.60;;;;;;6214180;23;20000;-77
2022/01/28 06:35:07;;;;;;;168.13;94.95;;;64.20;2201.60;;;;;;6214949;23;20417;-77
2022/01/28 06:37:35;;;;;;;151.13;88.60;;;64.10;2201.60;;;;;;6214145;23;20372;-77
2022/01/28 06:40:00;;;;;;;171.82;96.93;;;39.30;2201.60;;;;;;6214952;23;20032;-77
2022/01/28 06:42:26;;;;;;;169.43;102.60;;;39.10;2201.60;;;;;;6214384;23;19993;-76
2022/01/28 06:44:52;;;;;;;190.02;112.78;;;38.90;2201.60;;;;;;6214339;23;20048;-77
2022/01/28 06:47:17;;;;;;;197.13;115.53;;;38.90;2201.60;;;;;;6214176;23;20442;-77
2022/01/28 06:49:43;;;;;;;204.50;114.65;;;38.90;2201.60;;;;;;6214839;23;20343;-77
2022/01/28 06:52:09;;;;;;;185.95;99.70;;;39.00;2201.60;;;;;;6188504;23;19997;-76
2022/01/28 06:54:34;;;;;;;217.05;130.98;;;39.00;2201.60;;;;;;6188455;23;20011;-76
2022/01/28 06:57:00;;;;;;;218.73;116.22;;;38.90;2201.60;;;;;;6188055;23;20474;-77
2022/01/28 06:59:26;;;;;;;172.75;97.05;;;39.00;2201.60;;;;;;6214330;23;19993;-77
2022/01/28 07:01:53;;;;;;;126.50;59.72;;;39.10;2201.60;;;;;;6213682;23;20438;-77
2022/01/28 07:04:19;;;;;;;162.80;94.18;;;39.10;2201.60;;;;;;6186539;23;20005;-77
2022/01/28 07:06:46;;;;;;;123.68;74.45;;;38.90;2201.60;;;;;;6214306;23;20424;-76
2022/01/28 07:09:11;;;;;;;129.63;64.90;;;38.80;2201.60;;;;;;6187836;23;20019;-77
2022/01/28 07:11:37;;;;;;;110.93;65.65;;;38.70;2201.60;;;;;;6187798;23;20033;-77
2022/01/28 07:14:03;;;;;;;103.95;63.25;;;38.60;2201.60;;;;;;6214469;23;19996;-77
2022/01/28 07:16:30;;;;;;;130.27;71.43;;;38.40;2201.60;;;;;;6214651;23;20000;-76
2022/01/28 07:18:56;;;;;;;121.18;67.47;;;38.40;2201.60;;;;;;6214670;23;20004;-77
2022/01/28 07:21:22;;;;;;;110.60;68.93;;;13.70;2201.60;;;;;;6214432;23;19997;-77
2022/01/28 07:23:47;;;;;;;99.00;51.08;;;13.60;2201.60;;;;;;6214234;23;20007;-77
2022/01/28 07:26:13;;;;;;;92.07;55.55;;;13.60;2201.60;;;;;;6214478;23;20327;-76
2022/01/28 07:28:41;;;;;;;104.40;61.72;;;13.40;2201.60;;;;;;6214226;23;20013;-77
2022/01/28 07:31:08;;;;;;;113.03;67.13;;;13.30;2201.60;;;;;;6214716;23;19992;-78
2022/01/28 07:33:34;;;;;;;138.18;80.90;;;13.20;2201.60;;;;;;6214929;23;19999;-76
2022/01/28 07:36:00;;;;;;;131.10;71.82;;;13.20;2201.60;;;;;;6214900;23;19997;-75
2022/01/28 07:38:26;;;;;;;124.60;74.22;;;13.30;2201.60;;;;;;6214514;23;20004;-76
2022/01/28 07:40:52;;;;;;;102.30;66.78;;;13.10;2201.60;;;;;;6187500;23;20003;-77
2022/01/28 07:43:17;;;;;;;122.88;74.72;;;13.10;2201.60;;;;;;6213220;23;20443;-76
2022/01/28 07:45:43;;;;;;;117.40;70.30;;;12.90;2201.60;;;;;;6214166;23;20007;-77
2022/01/28 07:48:09;;;;;;;106.68;64.68;;;0.10;2201.60;;;;;;6214280;23;20067;-76
2022/01/28 07:50:35;;;;;;;132.07;77.22;;;0.20;2201.60;;;;;;6213817;23;20004;-77
2022/01/28 07:53:01;;;;;;;124.13;76.38;;;0.30;2201.60;;;;;;6187391;23;20040;-77
2022/01/28 07:55:27;;;;;;;132.57;80.50;;;0.50;2201.60;;;;;;6187233;23;20001;-78
2022/01/28 07:57:52;;;;;;;132.27;73.47;;;0.70;2201.60;;;;;;6215123;23;20001;-82
2022/01/28 08:00:18;;;;;;;117.45;72.68;;;0.60;2201.60;;;;;;6214140;23;20387;-77
2022/01/28 08:02:44;;;;;;;134.65;81.13;;;0.60;2201.60;;;;;;6187398;23;20000;-82
2022/01/28 08:05:13;;;;;;;120.78;75.13;;;0.30;2201.60;;;;;;6188313;23;20008;-82
2022/01/28 08:07:39;;;;;;;128.73;77.20;;;0.50;2201.60;;;;;;6187652;23;20004;-83
2022/01/28 08:10:05;;;;;;;108.38;66.22;;;0.70;2201.60;;;;;;6214031;23;20015;-75
2022/01/28 08:12:31;;;;;;;106.82;62.00;;;0.60;2201.60;;;;;;6214166;23;19997;-77
2022/01/28 08:14:57;;;;;;;88.93;54.25;;;0.70;2201.60;;;;;;6187237;23;20023;-76
2022/01/28 08:17:23;;;;;;;99.75;63.33;;;0.70;2201.60;;;;;;6213978;23;19997;-77
2022/01/28 08:19:48;;;;;;;95.72;60.85;;;0.80;2201.60;;;;;;6210102;23;20051;-77
2022/01/28 08:22:14;;;;;;;103.05;64.45;;;0.90;2201.60;;;;;;6186032;23;20062;-78
2022/01/28 08:24:40;;;;;;;119.47;68.07;;;25.60;2201.60;;;;;;6213660;23;20341;-78
2022/01/28 08:27:06;;;;;;;114.72;71.22;;;25.80;2201.60;;;;;;6187661;23;20036;-78
2022/01/28 08:29:31;;;;;;;105.47;66.55;;;26.20;2201.60;;;;;;6187499;23;20424;-78
2022/01/28 08:31:57;;;;;;;122.90;78.80;;;26.40;2201.60;;;;;;6186789;23;20336;-76
2022/01/28 08:34:23;;;;;;;146.82;93.05;;;51.30;2227.20;;;;;;6213483;23;20413;-79
2022/01/28 08:36:48;;;;;;;171.70;106.95;;;51.40;2227.20;;;;;;6186042;23;20096;-81
2022/01/28 08:39:16;;;;;;;151.07;97.32;;;51.50;2227.20;;;;;;6186845;23;19997;-77
2022/01/28 08:41:42;;;;;;;211.57;128.82;;;51.60;2227.20;;;;;;6185810;23;20001;-78
2022/01/28 08:44:08;;;;;;;212.73;128.15;;;51.70;2227.20;;;;;;6213195;23;19996;-76
2022/01/28 08:46:34;;;;;;;228.35;145.30;;;51.60;2227.20;;;;;;6186687;23;20084;-76
2022/01/28 08:49:01;;;;;;;273.52;170.38;;;51.60;2227.20;;;;;;6186594;23;20731;-80
2022/01/28 08:51:26;;;;;;;289.95;175.32;;;51.50;2227.20;;;;;;6186278;23;20408;-77
2022/01/28 08:53:54;;;;;;;296.35;177.27;;;51.40;2227.20;;;;;;6213581;23;20057;-78
2022/01/28 08:56:20;;;;;;;326.67;208.15;;;51.50;2227.20;;;;;;6213605;23;20003;-80
2022/01/28 08:58:45;;;;;;;248.77;159.07;;;51.50;2227.20;;;;;;6187547;23;20080;-80
2022/01/28 09:01:11;;;;;;;224.73;137.82;;;51.40;2227.20;;;;;;6213469;23;20062;-78
2022/01/28 09:03:37;;;;;;;196.20;128.13;;;51.30;2227.20;;;;;;6214196;23;20384;-77
2022/01/28 09:06:02;;;;;;;177.98;114.15;;;51.30;2227.20;;;;;;6213940;23;20305;-77
2022/01/28 09:08:28;;;;;;;179.23;114.03;;;51.40;2227.20;;;;;;6213853;23;20019;-76
2022/01/28 09:10:59;;;;;;;222.73;132.98;;;26.40;2201.60;;;;;;6213891;23;20028;-75
2022/01/28 09:13:37;;;;;;;175.07;114.15;;;26.50;2201.60;;;;;;6187463;23;20071;-76
2022/01/28 09:16:03;;;;;;;197.07;120.43;;;26.50;2201.60;;;;;;6213952;23;19997;-76
2022/01/28 09:18:29;;;;;;;179.10;112.93;;;51.20;2227.20;;;;;;6213579;23;20490;-76
2022/01/28 09:20:56;;;;;;;191.00;123.68;;;51.30;2227.20;;;;;;6184087;23;20001;-76
2022/01/28 09:23:23;;;;;;;214.73;131.60;;;51.40;2227.20;;;;;;6186771;23;20004;-78
2022/01/28 09:25:48;;;;;;;202.63;133.98;;;51.50;2227.20;;;;;;6156061;23;20021;-76
2022/01/28 09:28:15;;;;;;;217.13;135.68;;;51.60;2227.20;;;;;;6155049;23;20001;-80
2022/01/28 09:30:41;;;;;;;213.27;137.65;;;51.60;2227.20;;;;;;6155599;23;20073;-75
2022/01/28 09:33:07;;;;;;;214.98;133.60;;;51.80;2227.20;;;;;;6153136;23;20033;-77
2022/01/28 09:35:34;;;;;;;191.27;123.88;;;52.00;2227.20;;;;;;6153777;23;20005;-77
2022/01/28 09:38:01;;;;;;;238.18;143.98;;;52.10;2227.20;;;;;;6153669;23;20005;-78
2022/01/28 09:40:27;;;;;;;232.43;138.75;;;76.90;2227.20;;;;;;6154444;23;20333;-77
2022/01/28 09:42:54;;;;;;;225.18;144.60;;;77.10;2227.20;;;;;;6155318;23;20032;-77
2022/01/28 09:45:23;;;;;;;287.55;171.88;;;77.00;2227.20;;;;;;6155964;23;20002;-77
2022/01/28 09:47:53;;;;;;;261.23;162.80;;;77.30;2227.20;;;;;;6154432;23;20075;-78
2022/01/28 09:50:21;;;;;;;232.70;149.80;;;77.40;2227.20;;;;;;6153859;23;20092;-78
2022/01/28 09:52:49;;;;;;;293.15;188.80;;;77.60;2227.20;;;;;;6155031;23;20013;-78
2022/01/28 09:55:15;;;;;;;281.60;176.80;;;77.60;2227.20;;;;;;6154184;23;20396;-78
2022/01/28 09:57:41;;;;;;;330.52;199.00;;;77.40;2227.20;;;;;;6155704;23;20434;-78
2022/01/28 10:00:10;;;;;;;276.63;173.07;;;77.50;2227.20;;;;;;6153942;23;20224;-78
2022/01/28 10:03:01;;;;;;;267.63;166.32;;;77.50;2227.20;;;;;;6153857;23;20088;-77
2022/01/28 10:05:36;;;;;;;313.42;177.57;;;77.30;2227.20;;;;;;6155867;23;20421;-77
2022/01/28 10:08:08;;;;;;;248.95;148.07;;;76.80;2227.20;;;;;;6155745;23;20131;-77
2022/01/28 10:11:14;;;;;;;181.75;117.68;;;51.50;2227.20;;;;;;6153599;23;20477;-77
2022/01/28 10:13:52;;;;;;;242.18;155.43;;;51.30;2227.20;;;;;;6155538;23;20036;-76
2022/01/28 10:16:23;;;;;;;265.75;149.75;;;51.50;2227.20;;;;;;6153647;23;20029;-78
2022/01/28 10:18:52;;;;;;;249.02;142.63;;;51.80;2227.20;;;;;;6153592;23;20433;-78
2022/01/28 10:21:39;;;;;;;255.32;149.05;;;52.10;2227.20;;;;;;6154771;23;20064;-79
2022/01/28 10:24:08;;;;;;;269.42;163.13;;;77.10;2227.20;;;;;;6163720;23;20518;-77
2022/01/28 10:26:37;;;;;;;257.30;157.35;;;77.30;2227.20;;;;;;6188080;23;20016;-78
2022/01/28 10:29:09;;;;;;;230.68;148.75;;;77.40;2227.20;;;;;;6187677;23;20044;-75
2022/01/28 10:31:40;;;;;;;260.52;159.23;;;77.60;2227.20;;;;;;6214378;23;19997;-76
2022/01/28 10:34:33;;;;;;;271.35;169.93;;;102.40;2227.20;;;;;;6187550;23;20015;-75
2022/01/28 10:37:14;;;;;;;229.38;152.73;;;77.70;2227.20;;;;;;6213971;23;20030;-75
2022/01/28 10:39:44;;;;;;;232.55;154.70;;;77.70;2227.20;;;;;;6214451;23;20012;-76
2022/01/28 10:42:12;;;;;;;233.93;152.20;;;77.70;2227.20;;;;;;6187516;23;20001;-77
2022/01/28 10:44:53;;;;;;;237.60;152.05;;;77.60;2227.20;;;;;;6215497;23;19997;-77
2022/01/28 10:47:30;;;;;;;205.63;136.63;;;77.70;2227.20;;;;;;6214957;23;20011;-77
2022/01/28 10:49:57;;;;;;;196.15;130.55;;;77.70;2227.20;;;;;;6214564;23;20343;-76
2022/01/28 10:52:32;;;;;;;190.15;123.78;;;77.60;2227.20;;;;;;6213882;23;19993;-75
2022/01/28 10:54:57;;;;;;;206.95;131.52;;;77.60;2227.20;;;;;;6214828;23;20001;-76
2022/01/28 10:57:23;;;;;;;219.25;138.32;;;77.60;2227.20;;;;;;6214344;23;20071;-75
2022/01/28 10:59:49;;;;;;;237.07;153.93;;;102.40;2227.20;;;;;;6188018;23;20027;-77
2022/01/28 11:02:16;;;;;;;220.52;141.80;;;77.40;2227.20;;;;;;6187590;23;19997;-76
2022/01/28 11:04:43;;;;;;;197.07;128.32;;;77.70;2227.20;;;;;;6188122;23;20467;-76
2022/01/28 11:07:11;;;;;;;184.45;121.90;;;102.40;2227.20;;;;;;6213972;23;20001;-76
2022/01/28 11:09:40;;;;;;;165.30;110.72;;;102.50;2227.20;;;;;;6214703;23;20004;-76
2022/01/28 11:12:07;;;;;;;166.32;111.38;;;102.40;2227.20;;;;;;6187436;23;20821;-76
2022/01/28 11:14:33;;;;;;;176.98;118.40;;;102.70;2227.20;;;;;;6214458;23;20001;-77
2022/01/28 11:16:59;;;;;;;162.65;108.95;;;102.50;2227.20;;;;;;6187893;23;20327;-77
2022/01/28 11:19:28;;;;;;;176.50;112.88;;;102.40;2227.20;;;;;;6187534;23;20055;-78
2022/01/28 11:22:20;;;;;;;156.43;103.03;;;102.50;2227.20;;;;;;6213966;23;20001;-76
2022/01/28 11:25:11;;;;;;;165.95;104.82;;;102.40;2227.20;;;;;;6211541;23;20502;-76
2022/01/28 11:27:38;;;;;;;162.75;110.25;;;77.60;2227.20;;;;;;6213296;23;20015;-76
2022/01/28 11:30:30;;;;;;;151.32;105.85;;;102.50;2227.20;;;;;;6187455;23;20013;-76
2022/01/28 11:33:00;;;;;;;183.77;115.88;;;102.70;2227.20;;;;;;6206867;23;20017;-76
2022/01/28 11:35:30;;;;;;;211.23;136.68;;;102.50;2227.20;;;;;;6214217;23;20316;-75
2022/01/28 11:38:03;;;;;;;199.68;129.82;;;102.40;2227.20;;;;;;6213551;23;19993;-75
2022/01/28 11:40:41;;;;;;;198.65;129.38;;;102.50;2227.20;;;;;;6213175;23;20048;-76
2022/01/28 11:43:28;;;;;;;199.45;129.32;;;102.60;2227.20;;;;;;6186229;23;20005;-77
2022/01/28 11:46:06;;;;;;;295.17;162.25;;;102.70;2227.20;;;;;;6212647;23;20005;-75
2022/01/28 11:48:58;;;;;;;285.33;158.43;;;102.50;2227.20;;;;;;6185970;23;20005;-76
2022/01/28 11:51:32;;;;;;;532.33;284.67;;;102.70;2227.20;;;;;;6212478;23;20095;-78
2022/01/28 11:54:00;;;;;;;465.33;245.30;;;102.80;2227.20;;;;;;6186110;23;20019;-77
2022/01/28 11:56:27;;;;;;;273.92;161.00;;;102.90;2227.20;;;;;;6213037;23;19992;-76
2022/01/28 11:58:56;;;;;;;236.10;149.60;;;102.50;2227.20;;;;;;6213681;23;20008;-76
2022/01/28 12:01:24;;;;;;;214.70;141.10;;;102.60;2227.20;;;;;;6185867;23;20440;-77
2022/01/28 12:03:50;;;;;;;223.07;146.40;;;102.60;2227.20;;;;;;6212317;23;20047;-77
2022/01/28 12:06:17;;;;;;;223.32;145.02;;;102.60;2227.20;;;;;;6213363;23;20320;-76
2022/01/28 12:08:45;;;;;;;222.93;147.45;;;102.70;2227.20;;;;;;6213208;23;20004;-76
2022/01/28 12:11:13;;;;;;;218.65;143.38;;;102.80;2227.20;;;;;;6213247;23;20001;-75
2022/01/28 12:14:10;;;;;;;287.92;183.85;;;102.80;2227.20;;;;;;6213605;23;20000;-76
2022/01/28 12:16:41;;;;;;;260.52;163.70;;;102.70;2227.20;;;;;;6213408;23;20007;-75
2022/01/28 12:19:18;;;;;;;276.85;177.90;;;102.90;2227.20;;;;;;6212686;23;20039;-75
2022/01/28 12:22:08;;;;;;;307.58;196.00;;;102.80;2227.20;;;;;;6212963;23;20450;-76
2022/01/28 12:24:35;;;;;;;265.98;167.35;;;102.80;2227.20;;;;;;6213603;23;20388;-76
2022/01/28 12:27:03;;;;;;;242.88;160.77;;;103.00;2227.20;;;;;;6214093;23;20001;-75
2022/01/28 12:29:34;;;;;;;255.23;167.50;;;103.00;2227.20;;;;;;6213686;23;20051;-78
2022/01/28 12:32:02;;;;;;;248.57;162.02;;;103.30;2227.20;;;;;;6212522;23;19993;-76
2022/01/28 12:34:27;;;;;;;236.43;158.40;;;103.30;2227.20;;;;;;6185730;23;20075;-76
2022/01/28 12:36:57;;;;;;;249.70;167.25;;;128.10;2252.80;;;;;;6213132;23;20349;-75
2022/01/28 12:39:38;;;;;;;225.35;152.70;;;128.20;2252.80;;;;;;6187337;23;20001;-75
2022/01/28 12:42:09;;;;;;;229.15;152.55;;;128.30;2252.80;;;;;;6213209;23;20370;-76
2022/01/28 12:44:37;;;;;;;242.73;157.93;;;128.30;2252.80;;;;;;6212083;23;19996;-75
2022/01/28 12:47:06;;;;;;;283.98;186.65;;;128.60;2252.80;;;;;;6212434;23;20004;-76
2022/01/28 12:49:34;;;;;;;287.50;183.98;;;128.40;2252.80;;;;;;6212439;23;20014;-75
2022/01/28 12:52:06;;;;;;;246.02;155.20;;;128.20;2252.80;;;;;;6186519;23;20001;-74
2022/01/28 12:54:35;;;;;;;143.60;94.80;;;128.50;2252.80;;;;;;6213407;23;20000;-79
2022/01/28 12:57:02;;;;;;;81.25;54.03;;;128.50;2252.80;;;;;;6187075;23;20440;-76
2022/01/28 12:59:27;;;;;;;57.50;34.88;;;128.70;2227.20;;;;;;6186514;23;20486;-76
2022/01/28 13:01:55;;;;;;;48.20;32.08;;;153.60;2176.00;;;;;;6212787;23;20001;-74
2022/01/28 13:04:24;;;;;;;43.55;24.73;;;153.80;2176.00;;;;;;6187119;23;20027;-75
2022/01/28 13:09:17;;;;;;;34.45;23.02;;;;;;;;;;6213170;23;20036;-75
2022/01/28 13:11:47;;;;;;;28.48;18.63;;;;;;;;;;6210091;23;20072;-75
2022/01/28 13:14:14;;;;;;;39.75;24.02;;;;;;;;;;6213795;23;19996;-75
2022/01/28 13:16:42;;;;;;;40.05;26.63;;;;;;;;;;6213446;23;19997;-75
2022/01/28 13:19:08;;;;;;;38.90;25.42;;;;;;;;;;6212700;23;19997;-75
2022/01/28 13:21:35;;;;;;;40.47;26.67;;;;;;;;;;6212887;23;19997;-75
2022/01/28 13:24:05;;;;;;;32.63;22.67;;;;;;;;;;6213126;23;20051;-75
2022/01/28 13:26:31;;;;;;;33.75;22.10;;;;;;;;;;6186441;23;19996;-76
2022/01/28 13:29:07;;;;;;;31.63;23.17;;;;;;;;;;6186475;23;20474;-77
2022/01/28 13:31:33;;;;;;;30.55;21.00;;;;;;;;;;6213548;23;20000;-74
2022/01/28 13:34:01;;;;;;;34.33;21.95;;;;;;;;;;6213922;23;20043;-77
2022/01/28 13:36:27;;;;;;;38.58;25.95;;;;;;;;;;6214049;23;19996;-76
2022/01/28 13:38:54;;;;;;;35.17;20.35;;;;;;;;;;6213309;23;20027;-75